createdAt,value
2022-09-18T00:01:24.964Z,11.90
2022-09-18T00:03:53.774Z,12.00
2022-09-18T00:06:26.809Z,11.90
2022-09-18T00:08:54.738Z,11.90
2022-09-18T00:11:23.292Z,11.90
2022-09-18T00:13:50.581Z,11.90
2022-09-18T00:16:18.485Z,11.80
2022-09-18T00:18:45.589Z,11.90
2022-09-18T00:21:20.261Z,11.90
2022-09-18T00:23:47.444Z,11.80
2022-09-18T00:26:15.236Z,11.80
2022-09-18T00:28:42.186Z,11.80
2022-09-18T00:31:21.549Z,11.80
2022-09-18T00:33:48.555Z,11.70
2022-09-18T00:36:16.278Z,11.70
2022-09-18T00:38:43.117Z,11.60
2022-09-18T00:41:16.487Z,11.60
2022-09-18T00:43:43.437Z,11.60
2022-09-18T00:46:25.158Z,11.60
2022-09-18T00:49:04.353Z,11.60
2022-09-18T00:51:36.435Z,11.60
2022-09-18T00:54:11.172Z,11.60
2022-09-18T00:56:38.170Z,11.50
2022-09-18T00:59:05.118Z,11.50
2022-09-18T01:01:32.073Z,11.50
2022-09-18T01:03:58.872Z,11.50
2022-09-18T01:06:40.349Z,11.40
2022-09-18T01:09:28.762Z,11.40
2022-09-18T01:11:58.210Z,11.40
2022-09-18T01:14:41.343Z,11.40
2022-09-18T01:17:17.314Z,11.40
2022-09-18T01:20:08.966Z,11.40
2022-09-18T01:23:05.977Z,11.30
2022-09-18T01:26:01.428Z,11.30
2022-09-18T01:28:44.575Z,11.20
2022-09-18T01:31:25.278Z,11.20
2022-09-18T01:33:55.927Z,11.20
2022-09-18T01:36:22.765Z,11.10
2022-09-18T01:39:03.047Z,11.10
2022-09-18T01:41:29.975Z,11.20
2022-09-18T01:44:10.043Z,11.20
2022-09-18T01:46:38.228Z,11.20
2022-09-18T01:49:11.693Z,11.20
2022-09-18T01:51:47.415Z,11.10
2022-09-18T01:54:17.085Z,11.10
2022-09-18T01:56:47.701Z,11.20
2022-09-18T01:59:24.576Z,11.20
2022-09-18T02:01:59.158Z,11.10
2022-09-18T02:04:27.650Z,11.10
2022-09-18T02:07:26.428Z,11.10
2022-09-18T02:09:53.371Z,11.10
2022-09-18T02:12:23.244Z,11.10
2022-09-18T02:14:54.801Z,11.10
2022-09-18T02:17:58.619Z,11.10
2022-09-18T02:20:36.294Z,11.10
2022-09-18T02:23:05.266Z,11.10
2022-09-18T02:25:44.378Z,11.00
2022-09-18T02:28:11.261Z,11.10
2022-09-18T02:30:39.176Z,11.00
2022-09-18T02:33:23.189Z,11.00
2022-09-18T02:35:53.423Z,10.90
2022-09-18T02:38:29.216Z,10.90
2022-09-18T02:41:27.028Z,10.90
2022-09-18T02:43:55.484Z,10.90
2022-09-18T02:46:50.691Z,10.80
2022-09-18T02:49:39.741Z,10.70
2022-09-18T02:52:14.560Z,10.80
2022-09-18T02:55:06.161Z,10.70
2022-09-18T02:57:37.833Z,10.70
2022-09-18T03:00:11.740Z,10.60
2022-09-18T03:02:40.018Z,10.60
2022-09-18T03:05:08.211Z,10.60
2022-09-18T03:07:51.953Z,10.60
2022-09-18T03:10:19.422Z,10.60
2022-09-18T03:12:46.228Z,10.60
2022-09-18T03:15:13.284Z,10.60
2022-09-18T03:17:40.185Z,10.60
2022-09-18T03:20:07.656Z,10.50
2022-09-18T03:22:34.901Z,10.40
2022-09-18T03:25:02.477Z,10.40
2022-09-18T03:27:29.977Z,10.50
2022-09-18T03:29:56.975Z,10.50
2022-09-18T03:32:24.934Z,10.50
2022-09-18T03:34:52.581Z,10.50
2022-09-18T03:37:19.504Z,10.40
2022-09-18T03:39:46.921Z,10.30
2022-09-18T03:42:14.967Z,10.30
2022-09-18T03:44:41.828Z,10.30
2022-09-18T03:47:36.628Z,10.30
2022-09-18T03:50:05.928Z,10.40
2022-09-18T03:52:34.556Z,10.40
2022-09-18T03:55:10.408Z,10.30
2022-09-18T03:57:59.853Z,10.30
2022-09-18T04:00:45.141Z,10.30
2022-09-18T04:03:20.273Z,10.30
2022-09-18T04:06:16.394Z,10.40
2022-09-18T04:09:03.293Z,10.40
2022-09-18T04:11:39.378Z,10.40
2022-09-18T04:14:06.184Z,10.40
2022-09-18T04:16:33.716Z,10.40
2022-09-18T04:19:00.929Z,10.40
2022-09-18T04:21:27.769Z,10.30
2022-09-18T04:23:56.337Z,10.30
2022-09-18T04:26:26.359Z,10.40
2022-09-18T04:28:56.632Z,10.40
2022-09-18T04:31:23.720Z,10.30
2022-09-18T04:33:50.805Z,10.30
2022-09-18T04:36:21.717Z,10.30
2022-09-18T04:38:48.580Z,10.30
2022-09-18T04:41:15.379Z,10.30
2022-09-18T04:43:45.030Z,10.30
2022-09-18T04:46:12.977Z,10.20
2022-09-18T04:48:39.829Z,10.30
2022-09-18T04:51:06.804Z,10.20
2022-09-18T04:53:46.016Z,10.20
2022-09-18T04:56:12.949Z,10.10
2022-09-18T04:58:42.692Z,10.10
2022-09-18T05:01:11.286Z,10.00
2022-09-18T05:03:38.251Z,10.00
2022-09-18T05:06:10.452Z,10.00
2022-09-18T05:08:37.339Z,9.90
2022-09-18T05:11:04.931Z,9.90
2022-09-18T05:13:35.462Z,9.90
2022-09-18T05:16:11.125Z,9.90
2022-09-18T05:18:38.086Z,9.90
2022-09-18T05:21:05.776Z,9.80
2022-09-18T05:23:34.541Z,9.80
2022-09-18T05:26:04.969Z,9.90
2022-09-18T05:28:32.249Z,9.90
2022-09-18T05:31:00.662Z,9.80
2022-09-18T05:33:33.827Z,9.80
2022-09-18T05:36:04.314Z,9.80
2022-09-18T05:38:32.257Z,9.80
2022-09-18T05:41:02.474Z,9.80
2022-09-18T05:43:29.978Z,9.80
2022-09-18T05:45:57.192Z,9.70
2022-09-18T05:48:34.283Z,9.70
2022-09-18T05:51:01.161Z,9.60
2022-09-18T05:53:28.803Z,9.70
2022-09-18T05:56:16.561Z,9.70
2022-09-18T05:58:44.309Z,9.70
2022-09-18T06:01:14.295Z,9.70
2022-09-18T06:04:04.421Z,9.70
2022-09-18T06:06:42.967Z,9.70
2022-09-18T06:09:10.553Z,9.70
2022-09-18T06:11:37.713Z,9.70
2022-09-18T06:14:05.994Z,9.70
2022-09-18T06:16:35.642Z,9.70
2022-09-18T06:19:07.374Z,9.70
2022-09-18T06:21:34.178Z,9.80
2022-09-18T06:24:02.710Z,9.90
2022-09-18T06:26:49.903Z,9.90
2022-09-18T06:29:16.760Z,9.90
2022-09-18T06:31:51.633Z,9.90
2022-09-18T06:34:21.815Z,9.90
2022-09-18T06:36:49.483Z,10.00
2022-09-18T06:39:25.906Z,10.00
2022-09-18T06:41:59.562Z,10.10
2022-09-18T06:44:46.125Z,10.00
2022-09-18T06:47:14.526Z,10.10
2022-09-18T06:49:44.812Z,10.10
2022-09-18T06:52:11.759Z,10.20
2022-09-18T06:54:39.943Z,10.20
2022-09-18T06:57:07.594Z,10.30
2022-09-18T06:59:34.541Z,10.30
2022-09-18T07:02:01.501Z,10.30
2022-09-18T07:04:52.860Z,10.40
2022-09-18T07:07:20.270Z,10.50
2022-09-18T07:09:48.719Z,10.50
2022-09-18T07:12:23.279Z,10.60
2022-09-18T07:14:53.919Z,10.60
2022-09-18T07:17:26.069Z,10.70
2022-09-18T07:19:54.508Z,10.70
2022-09-18T07:22:25.770Z,10.80
2022-09-18T07:24:53.812Z,10.80
2022-09-18T07:27:22.013Z,10.90
2022-09-18T07:29:50.521Z,10.90
2022-09-18T07:32:20.469Z,10.90
2022-09-18T07:34:48.554Z,10.90
2022-09-18T07:37:21.759Z,10.90
2022-09-18T07:39:57.945Z,11.00
2022-09-18T07:42:43.478Z,11.00
2022-09-18T07:45:10.695Z,11.10
2022-09-18T07:47:37.655Z,11.10
2022-09-18T07:50:06.481Z,11.10
2022-09-18T07:52:33.529Z,11.10
2022-09-18T07:55:00.452Z,11.10
2022-09-18T07:57:33.484Z,11.20
2022-09-18T08:00:29.697Z,11.20
2022-09-18T08:03:07.086Z,11.30
2022-09-18T08:05:54.687Z,11.30
2022-09-18T08:08:21.568Z,11.30
2022-09-18T08:11:07.535Z,11.40
2022-09-18T08:13:55.230Z,11.40
2022-09-18T08:16:57.898Z,11.50
2022-09-18T08:19:36.923Z,11.60
2022-09-18T08:22:39.421Z,11.70
2022-09-18T08:25:07.000Z,11.80
2022-09-18T08:27:38.842Z,11.80
2022-09-18T08:30:07.226Z,11.90
2022-09-18T08:32:34.413Z,12.00
2022-09-18T08:35:03.497Z,12.10
2022-09-18T08:37:30.589Z,12.20
2022-09-18T08:40:17.948Z,12.40
2022-09-18T08:43:23.201Z,12.50
2022-09-18T08:46:17.097Z,12.50
2022-09-18T08:48:56.741Z,12.60
2022-09-18T08:51:31.065Z,12.60
2022-09-18T08:54:23.526Z,12.70
2022-09-18T08:57:24.783Z,12.70
2022-09-18T09:00:12.853Z,12.80
2022-09-18T09:02:48.496Z,12.80
2022-09-18T09:05:23.332Z,12.80
2022-09-18T09:08:08.063Z,12.80
2022-09-18T09:10:43.078Z,12.90
2022-09-18T09:13:48.081Z,13.00
2022-09-18T09:16:17.072Z,13.00
2022-09-18T09:18:50.970Z,13.00
2022-09-18T09:21:21.889Z,13.10
2022-09-18T09:24:28.145Z,13.10
2022-09-18T09:27:52.641Z,13.20
2022-09-18T09:30:38.100Z,13.30
2022-09-18T09:33:23.088Z,13.30
2022-09-18T09:36:09.348Z,13.30
2022-09-18T09:38:50.692Z,13.40
2022-09-18T09:41:26.706Z,13.50
2022-09-18T09:44:03.103Z,13.60
2022-09-18T09:46:50.070Z,13.70
2022-09-18T09:49:28.613Z,13.70
2022-09-18T09:52:09.115Z,13.80
2022-09-18T09:54:38.259Z,13.80
2022-09-18T09:57:16.627Z,13.90
2022-09-18T10:00:08.919Z,13.90
2022-09-18T10:03:18.436Z,14.00
2022-09-18T10:05:53.953Z,14.00
2022-09-18T10:08:31.131Z,14.10
2022-09-18T10:11:00.184Z,14.20
2022-09-18T10:13:52.027Z,14.40
2022-09-18T10:16:26.692Z,14.40
2022-09-18T10:18:54.709Z,14.40
2022-09-18T10:21:26.950Z,14.40
2022-09-18T10:24:17.409Z,14.50
2022-09-18T10:26:57.352Z,14.60
2022-09-18T10:29:24.295Z,14.70
2022-09-18T10:31:57.019Z,14.70
2022-09-18T10:34:42.400Z,14.80
2022-09-18T10:37:30.587Z,14.80
2022-09-18T10:40:02.531Z,14.90
2022-09-18T10:42:33.235Z,15.00
2022-09-18T10:45:26.638Z,15.20
2022-09-18T10:48:14.177Z,15.20
2022-09-18T10:50:54.975Z,15.30
2022-09-18T10:53:31.493Z,15.30
2022-09-18T10:56:10.331Z,15.30
2022-09-18T10:58:37.257Z,15.40
2022-09-18T11:01:07.936Z,15.40
2022-09-18T11:03:43.215Z,15.50
2022-09-18T11:06:17.242Z,15.50
2022-09-18T11:08:49.554Z,15.50
2022-09-18T11:11:23.001Z,15.50
2022-09-18T11:13:56.678Z,15.60
2022-09-18T11:16:33.367Z,15.60
2022-09-18T11:19:23.414Z,15.60
2022-09-18T11:21:52.500Z,15.60
2022-09-18T11:24:27.161Z,15.60
2022-09-18T11:27:19.102Z,15.70
2022-09-18T11:29:46.073Z,15.70
2022-09-18T11:32:26.512Z,15.60
2022-09-18T11:34:59.134Z,15.60
2022-09-18T11:37:30.425Z,15.60
2022-09-18T11:40:05.779Z,15.60
2022-09-18T11:42:32.761Z,15.60
2022-09-18T11:45:33.566Z,15.70
2022-09-18T11:48:21.487Z,15.80
2022-09-18T11:50:48.360Z,15.80
2022-09-18T11:53:18.171Z,16.00
2022-09-18T11:55:51.203Z,16.00
2022-09-18T11:58:24.176Z,16.10
2022-09-18T12:01:05.261Z,16.20
2022-09-18T12:03:36.037Z,16.20
2022-09-18T12:06:32.147Z,16.40
2022-09-18T12:09:03.490Z,16.40
2022-09-18T12:11:33.281Z,16.30
2022-09-18T12:14:08.681Z,16.30
2022-09-18T12:16:46.009Z,16.40
2022-09-18T12:19:37.224Z,16.50
2022-09-18T12:22:37.539Z,16.50
2022-09-18T12:25:15.030Z,16.60
2022-09-18T12:28:31.463Z,16.70
2022-09-18T12:31:08.698Z,16.80
2022-09-18T12:34:01.457Z,16.90
2022-09-18T12:36:49.593Z,16.80
2022-09-18T12:39:19.893Z,16.80
2022-09-18T12:41:59.449Z,16.90
2022-09-18T12:44:58.505Z,16.80
2022-09-18T12:47:58.302Z,16.80
2022-09-18T12:50:48.447Z,16.80
2022-09-18T12:53:38.763Z,16.90
2022-09-18T12:56:17.308Z,16.90
2022-09-18T12:59:13.802Z,17.00
2022-09-18T13:01:46.329Z,16.90
2022-09-18T13:04:29.459Z,16.90
2022-09-18T13:07:13.921Z,17.00
2022-09-18T13:10:07.208Z,17.00
2022-09-18T13:12:40.977Z,17.00
2022-09-18T13:15:21.658Z,17.00
2022-09-18T13:17:52.930Z,17.00
2022-09-18T13:20:41.374Z,17.10
2022-09-18T13:23:13.855Z,17.10
2022-09-18T13:25:40.725Z,17.20
2022-09-18T13:28:10.804Z,17.20
2022-09-18T13:30:37.900Z,17.30
2022-09-18T13:33:04.920Z,17.20
2022-09-18T13:35:33.861Z,17.10
2022-09-18T13:38:19.963Z,17.10
2022-09-18T13:40:58.262Z,17.20
2022-09-18T13:43:27.912Z,17.20
2022-09-18T13:45:55.546Z,17.10
2022-09-18T13:48:27.097Z,17.10
2022-09-18T13:51:02.086Z,17.00
2022-09-18T13:53:38.773Z,16.90
2022-09-18T13:56:10.183Z,16.90
2022-09-18T13:58:58.971Z,16.80
2022-09-18T14:01:41.049Z,16.80
2022-09-18T14:04:39.161Z,16.90
2022-09-18T14:07:18.349Z,17.00
2022-09-18T14:10:05.704Z,17.10
2022-09-18T14:12:34.370Z,17.10
2022-09-18T14:15:06.109Z,17.10
2022-09-18T14:17:34.088Z,17.20
2022-09-18T14:20:08.310Z,17.20
2022-09-18T14:22:38.198Z,17.30
2022-09-18T14:25:07.247Z,17.30
2022-09-18T14:27:35.453Z,17.20
2022-09-18T14:30:15.849Z,17.30
2022-09-18T14:32:53.608Z,17.30
2022-09-18T14:35:43.852Z,17.40
2022-09-18T14:38:26.378Z,17.50
2022-09-18T14:41:08.820Z,17.40
2022-09-18T14:43:38.708Z,17.40
2022-09-18T14:46:07.171Z,17.40
2022-09-18T14:48:38.008Z,17.30
2022-09-18T14:51:07.348Z,17.20
2022-09-18T14:53:43.677Z,17.20
2022-09-18T14:56:13.539Z,17.10
2022-09-18T14:58:42.875Z,17.00
2022-09-18T15:01:22.286Z,17.00
2022-09-18T15:03:50.372Z,17.10
2022-09-18T15:06:34.791Z,17.10
2022-09-18T15:09:01.790Z,17.10
2022-09-18T15:11:37.782Z,17.20
2022-09-18T15:14:26.927Z,17.10
2022-09-18T15:16:58.380Z,17.10
2022-09-18T15:19:25.363Z,17.10
2022-09-18T15:21:52.369Z,17.10
2022-09-18T15:24:19.251Z,17.10
2022-09-18T15:26:59.772Z,17.10
2022-09-18T15:29:42.469Z,17.10
2022-09-18T15:32:11.806Z,17.20
2022-09-18T15:34:42.131Z,17.20
2022-09-18T15:37:17.579Z,17.30
2022-09-18T15:39:46.633Z,17.40
2022-09-18T15:42:32.651Z,17.40
2022-09-18T15:44:59.514Z,17.50
2022-09-18T15:47:28.205Z,17.50
2022-09-18T15:49:55.557Z,17.40
2022-09-18T15:52:41.568Z,17.40
2022-09-18T15:55:28.797Z,17.40
2022-09-18T15:57:56.659Z,17.50
2022-09-18T16:00:26.128Z,17.50
2022-09-18T16:03:20.037Z,17.60
2022-09-18T16:05:53.635Z,17.60
2022-09-18T16:08:21.382Z,17.50
2022-09-18T16:10:51.067Z,17.40
2022-09-18T16:13:17.923Z,17.40
2022-09-18T16:15:47.483Z,17.30
2022-09-18T16:18:27.310Z,17.40
2022-09-18T16:20:57.898Z,17.30
2022-09-18T16:23:50.701Z,17.30
2022-09-18T16:26:35.370Z,17.20
2022-09-18T16:29:06.688Z,17.20
2022-09-18T16:31:34.958Z,17.30
2022-09-18T16:34:03.799Z,17.20
2022-09-18T16:36:39.579Z,17.20
2022-09-18T16:39:27.469Z,17.20
2022-09-18T16:41:54.436Z,17.20
2022-09-18T16:44:21.234Z,17.10
2022-09-18T16:46:53.974Z,17.10
2022-09-18T16:49:22.982Z,17.10
2022-09-18T16:51:49.918Z,17.00
2022-09-18T16:54:17.013Z,17.00
2022-09-18T16:56:53.553Z,17.00
2022-09-18T16:59:21.678Z,17.00
2022-09-18T17:02:03.404Z,16.90
2022-09-18T17:04:30.550Z,16.90
2022-09-18T17:06:57.432Z,16.90
2022-09-18T17:09:24.839Z,16.90
2022-09-18T17:11:52.333Z,16.90
2022-09-18T17:14:19.150Z,16.80
2022-09-18T17:16:46.084Z,16.80
2022-09-18T17:19:13.064Z,16.80
2022-09-18T17:21:40.053Z,16.80
2022-09-18T17:24:06.994Z,16.80
2022-09-18T17:26:35.462Z,16.70
2022-09-18T17:29:02.319Z,16.70
2022-09-18T17:31:29.290Z,16.80
2022-09-18T17:33:56.297Z,16.70
2022-09-18T17:36:23.210Z,16.70
2022-09-18T17:38:50.102Z,16.70
2022-09-18T17:41:18.930Z,16.80
2022-09-18T17:43:50.264Z,16.70
2022-09-18T17:46:17.143Z,16.70
2022-09-18T17:48:44.073Z,16.70
2022-09-18T17:51:12.946Z,16.80
2022-09-18T17:53:40.729Z,16.80
2022-09-18T17:56:11.376Z,16.80
2022-09-18T17:58:41.051Z,16.80
2022-09-18T18:01:15.822Z,16.80
2022-09-18T18:03:42.714Z,16.80
2022-09-18T18:06:11.065Z,16.70
2022-09-18T18:08:38.016Z,16.70
2022-09-18T18:11:06.909Z,16.60
2022-09-18T18:13:36.081Z,16.40
2022-09-18T18:16:11.133Z,16.30
2022-09-18T18:18:38.512Z,16.10
2022-09-18T18:21:05.847Z,15.90
2022-09-18T18:23:33.309Z,15.80
2022-09-18T18:26:01.695Z,15.80
2022-09-18T18:28:30.279Z,15.80
2022-09-18T18:31:06.204Z,15.70
2022-09-18T18:33:34.277Z,15.70
2022-09-18T18:36:11.112Z,15.70
2022-09-18T18:38:38.227Z,15.70
2022-09-18T18:41:05.449Z,15.70
2022-09-18T18:43:33.767Z,15.70
2022-09-18T18:46:02.053Z,15.70
2022-09-18T18:48:32.274Z,15.80
2022-09-18T18:50:59.604Z,15.80
2022-09-18T18:53:26.729Z,15.80
2022-09-18T18:55:54.346Z,15.80
2022-09-18T18:58:21.245Z,15.70
2022-09-18T19:00:48.172Z,15.70
2022-09-18T19:03:15.247Z,15.80
2022-09-18T19:05:42.097Z,15.80
2022-09-18T19:08:09.349Z,15.70
2022-09-18T19:10:36.361Z,15.70
2022-09-18T19:13:03.211Z,15.70
2022-09-18T19:15:30.043Z,15.70
2022-09-18T19:18:03.237Z,15.70
2022-09-18T19:20:30.329Z,15.70
2022-09-18T19:22:57.359Z,15.70
2022-09-18T19:25:25.244Z,15.70
2022-09-18T19:28:11.061Z,15.70
2022-09-18T19:30:40.026Z,15.70
2022-09-18T19:33:07.073Z,15.60
2022-09-18T19:35:37.079Z,15.60
2022-09-18T19:38:03.948Z,15.60
2022-09-18T19:40:32.364Z,15.50
2022-09-18T19:43:02.315Z,15.50
2022-09-18T19:45:29.762Z,15.50
2022-09-18T19:47:56.594Z,15.50
2022-09-18T19:50:28.274Z,15.50
2022-09-18T19:52:55.469Z,15.40
2022-09-18T19:55:22.487Z,15.40
2022-09-18T19:57:49.953Z,15.30
2022-09-18T20:00:16.917Z,15.30
2022-09-18T20:02:43.794Z,15.30
2022-09-18T20:05:10.695Z,15.20
2022-09-18T20:07:38.497Z,15.20
2022-09-18T20:10:10.670Z,15.10
2022-09-18T20:12:38.390Z,15.00
2022-09-18T20:15:05.960Z,14.90
2022-09-18T20:17:32.868Z,14.90
2022-09-18T20:19:59.784Z,14.90
2022-09-18T20:22:26.868Z,14.90
2022-09-18T20:24:54.170Z,14.90
2022-09-18T20:27:21.814Z,14.80
2022-09-18T20:29:49.188Z,14.70
2022-09-18T20:32:16.104Z,14.60
2022-09-18T20:34:47.085Z,14.50
2022-09-18T20:37:14.649Z,14.50
2022-09-18T20:39:41.563Z,14.40
2022-09-18T20:42:08.392Z,14.40
2022-09-18T20:44:35.281Z,14.40
2022-09-18T20:47:06.911Z,14.30
2022-09-18T20:49:34.555Z,14.30
2022-09-18T20:52:03.582Z,14.30
2022-09-18T20:54:30.509Z,14.30
2022-09-18T20:56:57.746Z,14.30
2022-09-18T20:59:24.934Z,14.20
2022-09-18T21:01:52.088Z,14.20
2022-09-18T21:04:20.296Z,14.10
2022-09-18T21:06:56.206Z,13.90
2022-09-18T21:09:27.720Z,13.80
2022-09-18T21:11:56.628Z,13.80
2022-09-18T21:14:24.586Z,13.70
2022-09-18T21:16:51.548Z,13.70
2022-09-18T21:19:19.437Z,13.60
2022-09-18T21:21:47.065Z,13.60
2022-09-18T21:24:16.656Z,13.60
2022-09-18T21:26:49.908Z,13.60
2022-09-18T21:29:20.900Z,13.50
2022-09-18T21:31:49.541Z,13.60
2022-09-18T21:34:23.422Z,13.50
2022-09-18T21:36:52.072Z,13.60
2022-09-18T21:39:18.884Z,13.50
2022-09-18T21:41:48.479Z,13.60
2022-09-18T21:44:17.232Z,13.50
2022-09-18T21:46:45.713Z,13.50
2022-09-18T21:49:15.045Z,13.40
2022-09-18T21:51:42.041Z,13.40
2022-09-18T21:54:12.741Z,13.30
2022-09-18T21:56:39.806Z,13.20
2022-09-18T21:59:08.957Z,13.20
2022-09-18T22:01:36.227Z,13.20
2022-09-18T22:04:03.692Z,13.10
2022-09-18T22:06:35.954Z,13.00
2022-09-18T22:09:12.963Z,13.00
2022-09-18T22:11:40.078Z,12.90
2022-09-18T22:14:15.546Z,12.90
2022-09-18T22:16:44.056Z,12.90
2022-09-18T22:19:11.140Z,12.90
2022-09-18T22:21:39.205Z,12.80
2022-09-18T22:24:08.839Z,12.80
2022-09-18T22:26:40.561Z,12.70
2022-09-18T22:29:08.744Z,12.70
2022-09-18T22:31:36.953Z,12.70
2022-09-18T22:34:04.072Z,12.70
2022-09-18T22:36:30.915Z,12.70
2022-09-18T22:38:57.811Z,12.80
2022-09-18T22:41:24.668Z,12.70
2022-09-18T22:43:55.647Z,12.70
2022-09-18T22:46:23.182Z,12.60
2022-09-18T22:48:50.082Z,12.60
2022-09-18T22:51:21.323Z,12.50
2022-09-18T22:53:50.200Z,12.40
2022-09-18T22:56:17.716Z,12.40
2022-09-18T22:58:45.156Z,12.40
2022-09-18T23:01:15.211Z,12.40
2022-09-18T23:03:42.159Z,12.30
2022-09-18T23:06:09.244Z,12.20
2022-09-18T23:08:36.374Z,12.10
2022-09-18T23:11:08.660Z,12.10
2022-09-18T23:13:36.613Z,12.10
2022-09-18T23:16:08.114Z,12.00
2022-09-18T23:18:35.022Z,11.90
2022-09-18T23:21:06.988Z,11.90
2022-09-18T23:23:35.196Z,11.90
2022-09-18T23:26:04.669Z,11.80
2022-09-18T23:28:33.006Z,11.80
2022-09-18T23:31:11.605Z,11.80
2022-09-18T23:33:38.945Z,11.80
2022-09-18T23:36:13.787Z,11.80
2022-09-18T23:38:43.644Z,11.80
2022-09-18T23:41:12.250Z,11.80
2022-09-18T23:43:39.668Z,11.70
2022-09-18T23:46:08.930Z,11.70
2022-09-18T23:48:35.860Z,11.70
2022-09-18T23:51:02.864Z,11.60
2022-09-18T23:53:33.405Z,11.60
2022-09-18T23:56:05.267Z,11.60
2022-09-18T23:58:32.521Z,11.50
